Weather History for K9D7 - February, 2013

Change the Weather History Date:

Sunday, February 17, 2013

  Actual Average (KDVL) Record (KDVL)
Temperature  
Mean Temperature 26 °F -  
Max Temperature 35 °F 22 °F 48 °F (1981)
Min Temperature 17 °F 7 °F -27 °F (1966)
Degree Days  
Heating Degree Days 39    
Moisture  
Dew Point 26 °F    
Average Humidity 96    
Maximum Humidity 100    
Minimum Humidity 87    
Precipitation  
Precipitation 5.62 in - - ()
Sea Level Pressure  
Sea Level Pressure 29.51 in    
Wind  
Wind Speed 15 mph (SW)    
Max Wind Speed 30 mph    
Max Gust Speed 33 mph    
Visibility 8 miles    
Events Rain , Snow    
Averages and records for this station are not official NWS values.
T = Trace of Precipitation, MM = Missing Value Source: NWS Daily Summary

Daily Weather History Graph

Daily Weather History Graph

Search for Another Location

Airport or City:

Trip Planner

Search our weather history database for the weather conditions in past years. The results will help you decide how hot, cold, wet, or windy it might be!

Date:

Astronomy

Feb. 17, 2013 Rise Set
Actual Time 7:40 AM CST 6:02 PM CST
Civil Twilight 7:08 AM CST 6:34 PM CST
Nautical Twilight 6:31 AM CST 7:11 PM CST
Astronomical Twilight 5:55 AM CST 7:47 PM CST
Moon 10:56 AM CST (2/17) 1:36 AM CST (2/17)
Length of Visible Light 11h 26m
Length of Day
10h 22m
Waxing Crescent, 49% of the Moon is Illuminated
Feb 17
Waxing Crescent
Feb 17
First Quarter
Feb 25
Full
Mar 4
Last Quarter
Mar 11
New

Hourly Weather History & Observations

Time (CST) Temp. Windchill Dew Point Humidity Pressure Visibility Wind Dir Wind Speed Gust Speed Precip Events Conditions
12:15 AM 19.4 °F 5.5 °F 17.6 °F 93% 29.74 in 5.0 mi South 15.0 mph - N/A   Clear
12:35 AM 17.6 °F 3.2 °F 17.6 °F 100% 29.73 in 8.0 mi South 15.0 mph - N/A   Clear
12:55 AM 19.4 °F 5.0 °F 17.6 °F 93% 29.72 in 5.0 mi South 16.1 mph - N/A   Clear
1:15 AM 19.4 °F 4.5 °F 19.4 °F 100% 29.71 in 7.0 mi South 17.3 mph - N/A   Clear
1:35 AM 19.4 °F 5.5 °F 19.4 °F 100% 29.71 in 6.0 mi South 15.0 mph - N/A   Clear
1:55 AM 19.4 °F 4.5 °F 19.4 °F 100% 29.70 in 7.0 mi South 17.3 mph - N/A   Clear
2:15 AM 19.4 °F 5.5 °F 19.4 °F 100% 29.69 in 6.0 mi South 15.0 mph - N/A   Clear
2:35 AM 19.4 °F 5.0 °F 19.4 °F 100% 29.68 in 7.0 mi South 16.1 mph - N/A   Clear
2:55 AM 19.4 °F 5.0 °F 17.6 °F 93% 29.67 in 10.0 mi South 16.1 mph - N/A   Clear
3:15 AM 19.4 °F 6.0 °F 17.6 °F 93% 29.67 in 8.0 mi South 13.8 mph - N/A   Partly Cloudy
3:35 AM 19.4 °F 5.5 °F 19.4 °F 100% 29.65 in 10.0 mi South 15.0 mph - N/A   Scattered Clouds
3:55 AM 19.4 °F 6.6 °F 19.4 °F 100% 29.64 in 8.0 mi South 12.7 mph - N/A   Mostly Cloudy
4:15 AM 19.4 °F 5.0 °F 19.4 °F 100% 29.62 in 10.0 mi South 16.1 mph - N/A   Mostly Cloudy
4:35 AM 19.4 °F 5.5 °F 19.4 °F 100% 29.60 in 10.0 mi South 15.0 mph - N/A   Overcast
4:55 AM 21.2 °F 6.8 °F 19.4 °F 93% 29.59 in 10.0 mi South 17.3 mph - N/A   Overcast
5:15 AM 23.0 °F 9.6 °F 21.2 °F 93% 29.59 in 10.0 mi South 16.1 mph - N/A   Overcast
5:35 AM 23.0 °F 10.6 °F 23.0 °F 100% 29.57 in 10.0 mi SSE 13.8 mph - N/A   Overcast
5:55 AM 23.0 °F 11.7 °F 23.0 °F 100% 29.57 in 10.0 mi South 11.5 mph - N/A   Overcast
6:15 AM 24.8 °F 13.4 °F 24.8 °F 100% 29.56 in 10.0 mi South 12.7 mph - N/A   Overcast
6:35 AM 24.8 °F 14.0 °F 24.8 °F 100% 29.55 in 10.0 mi SSE 11.5 mph - N/A   Overcast
6:55 AM 26.6 °F 15.2 °F 24.8 °F 93% 29.53 in 10.0 mi South 13.8 mph - N/A   Overcast
7:15 AM 26.6 °F 15.2 °F 26.6 °F 100% 29.52 in 10.0 mi South 13.8 mph - N/A   Overcast
7:35 AM 26.6 °F 14.7 °F 26.6 °F 100% 29.51 in 10.0 mi South 15.0 mph - N/A   Overcast
7:55 AM 26.6 °F 14.7 °F 26.6 °F 100% 29.50 in - South 15.0 mph - N/A   Overcast
8:15 AM 26.6 °F 16.8 °F 26.6 °F 100% 29.50 in 8.0 mi SSE 10.4 mph - N/A   Overcast
8:35 AM 26.6 °F 15.2 °F 26.6 °F 100% 29.48 in 8.0 mi SSE 13.8 mph - N/A   Overcast
8:55 AM 28.4 °F 18.5 °F 28.4 °F 100% 29.48 in 9.0 mi South 11.5 mph - N/A   Overcast
9:15 AM 28.4 °F 19.1 °F 28.4 °F 100% 29.48 in 9.0 mi South 10.4 mph - N/A   Mostly Cloudy
9:35 AM 30.2 °F 19.8 °F 30.2 °F 100% 29.47 in 10.0 mi SSW 13.8 mph - N/A   Mostly Cloudy
9:55 AM 32.0 °F 22.1 °F 30.2 °F 93% 29.46 in 10.0 mi SSW 13.8 mph - N/A   Overcast
10:15 AM 32.0 °F 22.1 °F 30.2 °F 93% 29.45 in 10.0 mi SSW 13.8 mph - N/A   Overcast
10:35 AM 32.0 °F 22.5 °F 32.0 °F 100% 29.45 in 10.0 mi SW 12.7 mph - N/A   Overcast
10:55 AM 32.0 °F 20.8 °F 32.0 °F 100% 29.44 in 10.0 mi SW 17.3 mph - N/A   Overcast
11:15 AM 32.0 °F 21.6 °F 32.0 °F 100% 29.43 in 10.0 mi SW 15.0 mph - N/A   Overcast
11:35 AM 33.8 °F 24.3 °F 32.0 °F 93% 29.43 in 10.0 mi SW 13.8 mph - N/A   Mostly Cloudy
11:55 AM 33.8 °F 25.3 °F 32.0 °F 93% 29.43 in 10.0 mi SW 11.5 mph - N/A   Mostly Cloudy
12:15 PM 33.8 °F 26.4 °F 32.0 °F 93% 29.43 in 10.0 mi WSW 9.2 mph - N/A   Overcast
12:35 PM 35.6 °F 27.1 °F 32.0 °F 87% 29.42 in 10.0 mi WSW 12.7 mph - N/A   Overcast
12:55 PM 33.8 °F 25.8 °F 32.0 °F 93% 29.41 in 10.0 mi SW 10.4 mph - N/A   Mostly Cloudy
1:15 PM 33.8 °F 27.7 °F 32.0 °F 93% 29.40 in 10.0 mi WSW 6.9 mph - N/A   Scattered Clouds
1:35 PM 35.6 °F 28.6 °F 32.0 °F 87% 29.40 in 10.0 mi WSW 9.2 mph - N/A   Overcast
1:55 PM 33.8 °F 25.8 °F 32.0 °F 93% 29.39 in 10.0 mi SW 10.4 mph - N/A   Overcast
2:15 PM 35.6 °F 27.1 °F 32.0 °F 87% 29.40 in 10.0 mi SW 12.7 mph - N/A   Overcast
2:35 PM 35.6 °F 28.0 °F 32.0 °F 87% 29.39 in 10.0 mi SW 10.4 mph - N/A   Overcast
2:55 PM 35.6 °F 26.6 °F 32.0 °F 87% 29.39 in 10.0 mi WSW 13.8 mph - N/A   Overcast
3:15 PM 35.6 °F 27.1 °F 32.0 °F 87% 29.40 in 10.0 mi West 12.7 mph - N/A   Overcast
3:35 PM 35.6 °F 26.2 °F 32.0 °F 87% 29.40 in 10.0 mi WSW 15.0 mph - N/A   Overcast
3:55 PM 35.6 °F 27.1 °F 32.0 °F 87% 29.40 in 10.0 mi West 12.7 mph - N/A   Overcast
4:15 PM 35.6 °F 26.6 °F 32.0 °F 87% 29.39 in 10.0 mi WNW 13.8 mph - N/A   Overcast
4:35 PM 35.6 °F 28.0 °F 32.0 °F 87% 29.40 in 10.0 mi NNW 10.4 mph - N/A   Overcast
4:55 PM 35.6 °F 28.6 °F 32.0 °F 87% 29.42 in 10.0 mi NW 9.2 mph - N/A   Overcast
5:15 PM 35.6 °F 27.5 °F 32.0 °F 87% 29.43 in 10.0 mi WNW 11.5 mph - N/A   Overcast
5:35 PM 33.8 °F 27.7 °F 32.0 °F 93% 29.44 in 10.0 mi NW 6.9 mph - N/A   Overcast
5:55 PM 33.8 °F 25.3 °F 32.0 °F 93% 29.44 in 10.0 mi NNW 11.5 mph - N/A   Overcast
6:15 PM 33.8 °F 26.4 °F 32.0 °F 93% 29.44 in 10.0 mi NW 9.2 mph - N/A   Overcast
6:35 PM 32.0 °F 23.6 °F 32.0 °F 100% 29.45 in 10.0 mi NNW 10.4 mph - N/A   Overcast
6:55 PM 32.0 °F 23.0 °F 32.0 °F 100% 29.45 in 10.0 mi North 11.5 mph - N/A   Overcast
7:15 PM 32.0 °F 22.1 °F 32.0 °F 100% 29.45 in 10.0 mi North 13.8 mph - N/A   Mostly Cloudy
7:35 PM 32.0 °F 20.1 °F 32.0 °F 100% 29.45 in 1.0 mi NNE 19.6 mph - 0.03 in Snow Light Snow
7:55 PM 28.4 °F 15.8 °F 28.4 °F 100% 29.46 in 0.5 mi NNE 18.4 mph - 0.30 in Snow Snow
8:15 PM 26.6 °F 13.4 °F 26.6 °F 100% 29.47 in 2.0 mi NNE 18.4 mph - 0.01 in Rain Light Freezing Rain
8:35 PM 26.6 °F 13.8 °F 26.6 °F 100% 29.48 in 0.5 mi NNE 17.3 mph 23.0 mph 0.25 in Snow Snow
8:55 PM 24.8 °F 10.0 °F 24.8 °F 100% 29.49 in 1.2 mi NNE 21.9 mph - 0.55 in Rain Light Freezing Rain
9:15 PM 24.8 °F 10.7 °F 24.8 °F 100% 29.51 in 3.0 mi NNE 19.6 mph - 0.02 in Rain Light Freezing Rain
9:35 PM 24.8 °F 10.0 °F 23.0 °F 93% 29.52 in 2.0 mi North 21.9 mph - 0.11 in Snow Light Snow
9:55 PM 23.0 °F 6.9 °F 23.0 °F 100% 29.52 in 1.5 mi North 24.2 mph - 0.44 in Snow Light Snow
10:15 PM 23.0 °F 8.3 °F 23.0 °F 100% 29.53 in 1.5 mi North 19.6 mph - 0.21 in Rain Light Freezing Rain
10:35 PM 23.0 °F 7.6 °F 21.2 °F 93% 29.54 in 1.5 mi North 21.9 mph - 0.47 in Rain Light Freezing Rain
10:55 PM 21.2 °F 4.5 °F 19.4 °F 93% 29.55 in 0.8 mi North 24.2 mph - 1.05 in Rain Light Freezing Rain
11:15 PM 19.4 °F 1.8 °F 19.4 °F 100% 29.55 in 1.0 mi North 25.3 mph 29.9 mph 0.92 in Snow Light Snow
11:35 PM 19.4 °F 0.5 °F 19.4 °F 100% 29.56 in 1.2 mi North 29.9 mph - 1.91 in Snow Light Snow
11:55 PM 19.4 °F 0.8 °F 17.6 °F 93% 29.57 in 1.0 mi North 28.8 mph 33.4 mph 3.28 in Snow Light Snow